sensor_id;sensor_type;location;lat;lon;timestamp;pressure;altitude;pressure_sealevel;temperature;humidity
39341;BME280;25059;52.132;21.062;2022-09-09T00:03:00;100156.72;;;12.09;100.00
39341;BME280;25059;52.132;21.062;2022-09-09T00:06:08;100157.16;;;12.00;100.00
39341;BME280;25059;52.132;21.062;2022-09-09T00:12:11;100148.94;;;11.88;100.00
39341;BME280;25059;52.132;21.062;2022-09-09T00:15:15;100147.38;;;11.84;100.00
39341;BME280;25059;52.132;21.062;2022-09-09T00:20:58;100135.53;;;11.74;100.00
39341;BME280;25059;52.132;21.062;2022-09-09T00:23:48;100141.84;;;11.70;100.00
39341;BME280;25059;52.132;21.062;2022-09-09T00:26:41;100130.53;;;11.68;100.00
39341;BME280;25059;52.132;21.062;2022-09-09T00:32:20;100143.94;;;11.63;100.00
39341;BME280;25059;52.132;21.062;2022-09-09T00:35:23;100142.84;;;11.68;100.00
39341;BME280;25059;52.132;21.062;2022-09-09T00:38:28;100140.38;;;11.64;100.00
39341;BME280;25059;52.132;21.062;2022-09-09T00:41:22;100143.94;;;11.63;100.00
39341;BME280;25059;52.132;21.062;2022-09-09T00:44:21;100142.28;;;11.61;100.00
39341;BME280;25059;52.132;21.062;2022-09-09T00:59:47;100143.63;;;11.70;100.00
39341;BME280;25059;52.132;21.062;2022-09-09T01:09:12;100148.97;;;11.68;100.00
39341;BME280;25059;52.132;21.062;2022-09-09T01:12:14;100147.13;;;11.70;100.00
39341;BME280;25059;52.132;21.062;2022-09-09T01:26:52;100130.25;;;11.74;100.00
39341;BME280;25059;52.132;21.062;2022-09-09T01:29:40;100128.63;;;11.72;100.00
39341;BME280;25059;52.132;21.062;2022-09-09T01:32:43;100117.00;;;11.76;100.00
39341;BME280;25059;52.132;21.062;2022-09-09T01:38:38;100123.81;;;11.81;100.00
39341;BME280;25059;52.132;21.062;2022-09-09T01:41:24;100126.84;;;11.91;100.00
39341;BME280;25059;52.132;21.062;2022-09-09T01:44:09;100127.41;;;11.98;100.00
39341;BME280;25059;52.132;21.062;2022-09-09T01:46:53;100130.69;;;12.03;100.00
39341;BME280;25059;52.132;21.062;2022-09-09T01:49:38;100134.31;;;12.00;100.00
39341;BME280;25059;52.132;21.062;2022-09-09T01:52:22;100136.25;;;11.96;100.00
39341;BME280;25059;52.132;21.062;2022-09-09T01:55:07;100135.59;;;11.91;100.00
39341;BME280;25059;52.132;21.062;2022-09-09T01:58:06;100130.97;;;11.96;100.00
39341;BME280;25059;52.132;21.062;2022-09-09T02:04:40;100126.47;;;11.99;100.00
39341;BME280;25059;52.132;21.062;2022-09-09T02:07:47;100127.47;;;11.96;100.00
39341;BME280;25059;52.132;21.062;2022-09-09T02:17:33;100123.84;;;11.99;100.00
39341;BME280;25059;52.132;21.062;2022-09-09T02:20:20;100130.13;;;11.96;100.00
39341;BME280;25059;52.132;21.062;2022-09-09T02:23:09;100126.47;;;11.99;100.00
39341;BME280;25059;52.132;21.062;2022-09-09T02:25:57;100124.91;;;11.94;100.00
39341;BME280;25059;52.132;21.062;2022-09-09T02:28:42;100125.78;;;11.95;100.00
39341;BME280;25059;52.132;21.062;2022-09-09T02:31:27;100126.06;;;11.89;100.00
39341;BME280;25059;52.132;21.062;2022-09-09T02:34:13;100131.03;;;11.95;100.00
39341;BME280;25059;52.132;21.062;2022-09-09T02:37:00;100120.66;;;11.92;100.00
39341;BME280;25059;52.132;21.062;2022-09-09T02:39:45;100128.78;;;11.87;100.00
39341;BME280;25059;52.132;21.062;2022-09-09T02:42:29;100128.78;;;11.87;100.00
39341;BME280;25059;52.132;21.062;2022-09-09T02:45:24;100131.41;;;11.87;100.00
39341;BME280;25059;52.132;21.062;2022-09-09T02:48:14;100136.03;;;11.82;100.00
39341;BME280;25059;52.132;21.062;2022-09-09T02:51:06;100128.47;;;11.75;100.00
39341;BME280;25059;52.132;21.062;2022-09-09T02:56:50;100128.75;;;11.69;100.00
39341;BME280;25059;52.132;21.062;2022-09-09T02:59:36;100134.81;;;11.71;100.00
39341;BME280;25059;52.132;21.062;2022-09-09T03:02:21;100127.69;;;11.73;100.00
39341;BME280;25059;52.132;21.062;2022-09-09T03:05:06;100132.25;;;11.69;100.00
39341;BME280;25059;52.132;21.062;2022-09-09T03:07:51;100133.88;;;11.72;100.00
39341;BME280;25059;52.132;21.062;2022-09-09T03:10:35;100134.97;;;11.68;100.00
39341;BME280;25059;52.132;21.062;2022-09-09T03:13:21;100127.69;;;11.73;100.00
39341;BME280;25059;52.132;21.062;2022-09-09T03:16:05;100124.22;;;11.72;100.00
39341;BME280;25059;52.132;21.062;2022-09-09T03:18:50;100123.28;;;11.73;100.00
39341;BME280;25059;52.132;21.062;2022-09-09T03:21:34;100115.31;;;11.75;100.00
39341;BME280;25059;52.132;21.062;2022-09-09T03:24:19;100115.31;;;11.75;100.00
39341;BME280;25059;52.132;21.062;2022-09-09T03:27:04;100115.81;;;11.83;100.00
39341;BME280;25059;52.132;21.062;2022-09-09T03:29:49;100120.25;;;11.82;100.00
39341;BME280;25059;52.132;21.062;2022-09-09T03:32:36;100111.13;;;11.89;100.00
39341;BME280;25059;52.132;21.062;2022-09-09T03:35:21;100114.59;;;11.90;100.00
39341;BME280;25059;52.132;21.062;2022-09-09T03:38:05;100116.53;;;11.86;100.00
39341;BME280;25059;52.132;21.062;2022-09-09T03:40:52;100114.03;;;11.83;100.00
39341;BME280;25059;52.132;21.062;2022-09-09T03:43:39;100113.41;;;11.78;100.00
39341;BME280;25059;52.132;21.062;2022-09-09T03:46:25;100117.69;;;11.81;100.00
39341;BME280;25059;52.132;21.062;2022-09-09T03:52:59;100129.00;;;11.83;100.00
39341;BME280;25059;52.132;21.062;2022-09-09T03:55:45;100121.94;;;11.83;100.00
39341;BME280;25059;52.132;21.062;2022-09-09T03:58:29;100121.34;;;11.95;100.00
39341;BME280;25059;52.132;21.062;2022-09-09T04:01:14;100132.75;;;11.96;100.00
39341;BME280;25059;52.132;21.062;2022-09-09T04:04:00;100126.69;;;11.94;100.00
39341;BME280;25059;52.132;21.062;2022-09-09T04:06:46;100124.69;;;11.99;100.00
39341;BME280;25059;52.132;21.062;2022-09-09T04:09:32;100126.56;;;11.97;100.00
39341;BME280;25059;52.132;21.062;2022-09-09T04:12:17;100125.47;;;12.01;100.00
39341;BME280;25059;52.132;21.062;2022-09-09T04:15:02;100129.75;;;12.04;100.00
39341;BME280;25059;52.132;21.062;2022-09-09T04:17:47;100128.03;;;12.03;100.00
39341;BME280;25059;52.132;21.062;2022-09-09T04:20:31;100123.63;;;12.03;100.00
39341;BME280;25059;52.132;21.062;2022-09-09T04:23:17;100120.06;;;12.04;100.00
39341;BME280;25059;52.132;21.062;2022-09-09T04:26:05;100123.41;;;12.08;100.00
39341;BME280;25059;52.132;21.062;2022-09-09T04:28:49;100115.03;;;12.17;100.00
39341;BME280;25059;52.132;21.062;2022-09-09T04:31:34;100113.19;;;12.19;100.00
39341;BME280;25059;52.132;21.062;2022-09-09T04:34:18;100111.78;;;12.12;100.00
39341;BME280;25059;52.132;21.062;2022-09-09T04:37:03;100112.78;;;12.09;100.00
39341;BME280;25059;52.132;21.062;2022-09-09T04:39:47;100122.63;;;12.06;100.00
39341;BME280;25059;52.132;21.062;2022-09-09T04:42:36;100115.66;;;12.05;100.00
39341;BME280;25059;52.132;21.062;2022-09-09T04:45:20;100130.53;;;12.06;100.00
39341;BME280;25059;52.132;21.062;2022-09-09T04:48:05;100125.88;;;12.11;100.00
39341;BME280;25059;52.132;21.062;2022-09-09T04:51:06;100126.97;;;12.07;100.00
39341;BME280;25059;52.132;21.062;2022-09-09T04:56:46;100130.38;;;12.09;100.00
39341;BME280;25059;52.132;21.062;2022-09-09T05:48:14;100144.69;;;12.39;100.00
39341;BME280;25059;52.132;21.062;2022-09-09T05:51:01;100148.72;;;12.46;100.00
39341;BME280;25059;52.132;21.062;2022-09-09T05:53:47;100155.25;;;12.56;100.00
39341;BME280;25059;52.132;21.062;2022-09-09T05:56:34;100146.16;;;12.62;100.00
39341;BME280;25059;52.132;21.062;2022-09-09T05:59:19;100147.72;;;12.66;100.00
39341;BME280;25059;52.132;21.062;2022-09-09T06:02:04;100152.00;;;12.69;100.00
39341;BME280;25059;52.132;21.062;2022-09-09T06:04:49;100157.19;;;12.70;100.00
39341;BME280;25059;52.132;21.062;2022-09-09T06:07:37;100153.63;;;12.71;100.00
39341;BME280;25059;52.132;21.062;2022-09-09T06:10:33;100158.25;;;12.83;100.00
39341;BME280;25059;52.132;21.062;2022-09-09T06:13:38;100167.03;;;12.84;100.00
39341;BME280;25059;52.132;21.062;2022-09-09T06:16:43;100162.06;;;12.78;100.00
39341;BME280;25059;52.132;21.062;2022-09-09T06:19:57;100168.59;;;12.88;100.00
39341;BME280;25059;52.132;21.062;2022-09-09T06:22:55;100169.13;;;12.94;100.00
39341;BME280;25059;52.132;21.062;2022-09-09T06:25:40;100167.56;;;13.25;100.00
39341;BME280;25059;52.132;21.062;2022-09-09T06:28:27;100175.56;;;13.23;100.00
39341;BME280;25059;52.132;21.062;2022-09-09T06:31:21;100168.88;;;12.99;100.00
39341;BME280;25059;52.132;21.062;2022-09-09T06:34:19;100177.13;;;12.93;100.00
39341;BME280;25059;52.132;21.062;2022-09-09T06:37:06;100184.56;;;12.85;100.00
39341;BME280;25059;52.132;21.062;2022-09-09T06:39:52;100173.31;;;12.81;100.00
39341;BME280;25059;52.132;21.062;2022-09-09T06:42:38;100179.75;;;12.93;100.00
39341;BME280;25059;52.132;21.062;2022-09-09T06:45:25;100175.34;;;12.93;100.00
39341;BME280;25059;52.132;21.062;2022-09-09T06:48:51;100173.16;;;12.84;100.00
39341;BME280;25059;52.132;21.062;2022-09-09T06:51:53;100175.81;;;12.84;100.00
39341;BME280;25059;52.132;21.062;2022-09-09T06:54:41;100184.25;;;12.91;100.00
39341;BME280;25059;52.132;21.062;2022-09-09T06:57:49;100187.75;;;12.91;100.00
39341;BME280;25059;52.132;21.062;2022-09-09T07:00:50;100185.88;;;12.93;100.00
39341;BME280;25059;52.132;21.062;2022-09-09T07:08:05;100190.69;;;13.20;100.00
39341;BME280;25059;52.132;21.062;2022-09-09T07:16:15;100193.19;;;13.23;100.00
39341;BME280;25059;52.132;21.062;2022-09-09T07:19:04;100203.25;;;13.15;100.00
39341;BME280;25059;52.132;21.062;2022-09-09T07:21:58;100200.69;;;13.13;100.00
39341;BME280;25059;52.132;21.062;2022-09-09T07:24:52;100191.75;;;13.16;100.00
39341;BME280;25059;52.132;21.062;2022-09-09T07:27:39;100194.13;;;13.22;100.00
39341;BME280;25059;52.132;21.062;2022-09-09T07:30:37;100199.94;;;13.29;100.00
39341;BME280;25059;52.132;21.062;2022-09-09T07:33:25;100213.56;;;13.37;100.00
39341;BME280;25059;52.132;21.062;2022-09-09T07:36:15;100210.44;;;13.46;100.00
39341;BME280;25059;52.132;21.062;2022-09-09T07:39:12;100210.38;;;13.47;100.00
39341;BME280;25059;52.132;21.062;2022-09-09T07:42:25;100202.88;;;13.55;100.00
39341;BME280;25059;52.132;21.062;2022-09-09T07:45:13;100206.06;;;13.62;100.00
39341;BME280;25059;52.132;21.062;2022-09-09T07:48:03;100218.78;;;13.71;100.00
39341;BME280;25059;52.132;21.062;2022-09-09T07:50:51;100213.50;;;13.71;100.00
39341;BME280;25059;52.132;21.062;2022-09-09T07:53:48;100214.84;;;13.78;100.00
39341;BME280;25059;52.132;21.062;2022-09-09T08:05:19;100240.84;;;13.70;100.00
39341;BME280;25059;52.132;21.062;2022-09-09T08:08:59;100244.19;;;13.74;100.00
39341;BME280;25059;52.132;21.062;2022-09-09T08:11:53;100239.25;;;13.83;100.00
39341;BME280;25059;52.132;21.062;2022-09-09T08:14:44;100239.78;;;13.90;100.00
39341;BME280;25059;52.132;21.062;2022-09-09T08:17:32;100245.16;;;14.04;100.00
39341;BME280;25059;52.132;21.062;2022-09-09T08:20:38;100244.72;;;14.12;100.00
39341;BME280;25059;52.132;21.062;2022-09-09T08:23:52;100247.72;;;14.21;100.00
39341;BME280;25059;52.132;21.062;2022-09-09T08:26:40;100244.47;;;14.32;100.00
39341;BME280;25059;52.132;21.062;2022-09-09T08:29:33;100245.75;;;14.25;100.00
39341;BME280;25059;52.132;21.062;2022-09-09T08:32:30;100251.03;;;14.25;100.00
39341;BME280;25059;52.132;21.062;2022-09-09T08:35:29;100248.22;;;14.28;100.00
39341;BME280;25059;52.132;21.062;2022-09-09T08:38:37;100245.00;;;14.23;100.00
39341;BME280;25059;52.132;21.062;2022-09-09T09:13:20;100263.81;;;15.54;100.00
39341;BME280;25059;52.132;21.062;2022-09-09T09:16:31;100273.47;;;15.55;100.00
39341;BME280;25059;52.132;21.062;2022-09-09T09:19:24;100271.75;;;15.40;100.00
39341;BME280;25059;52.132;21.062;2022-09-09T09:22:23;100266.53;;;15.38;100.00
39341;BME280;25059;52.132;21.062;2022-09-09T09:31:03;100272.41;;;15.43;100.00
39341;BME280;25059;52.132;21.062;2022-09-09T09:33:54;100274.94;;;15.61;100.00
39341;BME280;25059;52.132;21.062;2022-09-09T09:36:45;100276.91;;;15.57;100.00
39341;BME280;25059;52.132;21.062;2022-09-09T09:39:49;100278.47;;;15.45;100.00
39341;BME280;25059;52.132;21.062;2022-09-09T09:42:56;100270.13;;;15.37;100.00
39341;BME280;25059;52.132;21.062;2022-09-09T09:54:38;100274.00;;;15.76;100.00
39341;BME280;25059;52.132;21.062;2022-09-09T09:57:31;100272.56;;;15.70;100.00
39341;BME280;25059;52.132;21.062;2022-09-09T10:00:34;100269.25;;;15.81;100.00
39341;BME280;25059;52.132;21.062;2022-09-09T10:03:31;100266.78;;;15.92;100.00
39341;BME280;25059;52.132;21.062;2022-09-09T10:06:34;100267.44;;;16.10;100.00
39341;BME280;25059;52.132;21.062;2022-09-09T10:09:33;100276.34;;;16.09;100.00
39341;BME280;25059;52.132;21.062;2022-09-09T10:13:15;100284.41;;;15.93;100.00
39341;BME280;25059;52.132;21.062;2022-09-09T10:18:58;100290.56;;;15.79;100.00
39341;BME280;25059;52.132;21.062;2022-09-09T10:21:53;100288.19;;;15.75;100.00
39341;BME280;25059;52.132;21.062;2022-09-09T10:28:26;100289.00;;;16.32;100.00
39341;BME280;25059;52.132;21.062;2022-09-09T10:40:42;100321.81;;;16.03;100.00
39341;BME280;25059;52.132;21.062;2022-09-09T10:51:50;100329.19;;;15.69;100.00
39341;BME280;25059;52.132;21.062;2022-09-09T10:59:24;100336.47;;;15.66;100.00
39341;BME280;25059;52.132;21.062;2022-09-09T11:05:41;100332.69;;;15.70;100.00
39341;BME280;25059;52.132;21.062;2022-09-09T11:08:38;100338.63;;;15.59;100.00
39341;BME280;25059;52.132;21.062;2022-09-09T11:11:37;100344.72;;;15.45;100.00
39341;BME280;25059;52.132;21.062;2022-09-09T11:17:57;100340.63;;;15.70;100.00
39341;BME280;25059;52.132;21.062;2022-09-09T11:24:41;100346.25;;;15.94;100.00
39341;BME280;25059;52.132;21.062;2022-09-09T11:34:27;100356.00;;;16.07;100.00
39341;BME280;25059;52.132;21.062;2022-09-09T11:55:08;100353.31;;;16.50;100.00
39341;BME280;25059;52.132;21.062;2022-09-09T11:58:22;100349.06;;;16.47;100.00
39341;BME280;25059;52.132;21.062;2022-09-09T12:01:39;100354.84;;;16.40;100.00
39341;BME280;25059;52.132;21.062;2022-09-09T12:04:46;100352.50;;;16.21;100.00
39341;BME280;25059;52.132;21.062;2022-09-09T12:08:02;100351.56;;;16.08;100.00
39341;BME280;25059;52.132;21.062;2022-09-09T12:10:57;100352.31;;;15.96;100.00
39341;BME280;25059;52.132;21.062;2022-09-09T12:14:00;100363.00;;;15.94;100.00
39341;BME280;25059;52.132;21.062;2022-09-09T12:16:51;100366.31;;;15.83;100.00
39341;BME280;25059;52.132;21.062;2022-09-09T12:19:39;100360.63;;;15.75;100.00
39341;BME280;25059;52.132;21.062;2022-09-09T12:32:11;100360.53;;;16.48;100.00
39341;BME280;25059;52.132;21.062;2022-09-09T12:35:20;100365.75;;;16.35;100.00
39341;BME280;25059;52.132;21.062;2022-09-09T12:38:15;100369.56;;;16.17;100.00
39341;BME280;25059;52.132;21.062;2022-09-09T12:41:36;100364.63;;;16.11;100.00
39341;BME280;25059;52.132;21.062;2022-09-09T12:44:26;100350.31;;;16.28;100.00
39341;BME280;25059;52.132;21.062;2022-09-09T12:59:34;100333.88;;;16.64;100.00
39341;BME280;25059;52.132;21.062;2022-09-09T13:02:31;100345.81;;;16.57;100.00
39341;BME280;25059;52.132;21.062;2022-09-09T13:05:22;100351.81;;;16.46;100.00
39341;BME280;25059;52.132;21.062;2022-09-09T13:08:10;100355.16;;;16.21;100.00
39341;BME280;25059;52.132;21.062;2022-09-09T13:11:19;100352.50;;;16.07;100.00
39341;BME280;25059;52.132;21.062;2022-09-09T13:14:05;100351.75;;;16.05;100.00
39341;BME280;25059;52.132;21.062;2022-09-09T13:16:57;100349.84;;;16.07;100.00
39341;BME280;25059;52.132;21.062;2022-09-09T13:19:45;100346.16;;;15.95;100.00
39341;BME280;25059;52.132;21.062;2022-09-09T13:22:35;100338.38;;;15.92;100.00
39341;BME280;25059;52.132;21.062;2022-09-09T13:25:41;100339.44;;;16.04;100.00
39341;BME280;25059;52.132;21.062;2022-09-09T13:29:23;100342.75;;;15.93;100.00
39341;BME280;25059;52.132;21.062;2022-09-09T13:32:18;100334.69;;;15.95;100.00
39341;BME280;25059;52.132;21.062;2022-09-09T13:38:08;100343.50;;;15.81;100.00
39341;BME280;25059;52.132;21.062;2022-09-09T13:45:55;100343.31;;;15.24;100.00
39341;BME280;25059;52.132;21.062;2022-09-09T13:48:55;100347.09;;;15.20;100.00
39341;BME280;25059;52.132;21.062;2022-09-09T13:51:45;100352.31;;;15.22;100.00
39341;BME280;25059;52.132;21.062;2022-09-09T13:54:31;100355.03;;;15.20;100.00
39341;BME280;25059;52.132;21.062;2022-09-09T14:00:56;100349.56;;;15.23;100.00
39341;BME280;25059;52.132;21.062;2022-09-09T14:04:07;100358.28;;;15.25;100.00
39341;BME280;25059;52.132;21.062;2022-09-09T14:06:53;100358.44;;;15.22;100.00
39341;BME280;25059;52.132;21.062;2022-09-09T14:09:42;100357.25;;;15.28;100.00
39341;BME280;25059;52.132;21.062;2022-09-09T14:12:27;100354.16;;;15.35;100.00
39341;BME280;25059;52.132;21.062;2022-09-09T14:15:12;100360.25;;;15.22;100.00
39341;BME280;25059;52.132;21.062;2022-09-09T14:17:56;100362.22;;;15.18;100.00
39341;BME280;25059;52.132;21.062;2022-09-09T14:20:43;100360.25;;;15.22;100.00
39341;BME280;25059;52.132;21.062;2022-09-09T14:23:30;100360.75;;;15.28;100.00
39341;BME280;25059;52.132;21.062;2022-09-09T14:26:17;100360.03;;;15.40;100.00
39341;BME280;25059;52.132;21.062;2022-09-09T14:29:03;100371.06;;;15.33;100.00
39341;BME280;25059;52.132;21.062;2022-09-09T14:31:48;100369.22;;;15.19;100.00
39341;BME280;25059;52.132;21.062;2022-09-09T14:34:33;100382.06;;;15.41;100.00
39341;BME280;25059;52.132;21.062;2022-09-09T14:37:23;100373.31;;;15.55;100.00
39341;BME280;25059;52.132;21.062;2022-09-09T14:40:08;100367.91;;;15.72;100.00
39341;BME280;25059;52.132;21.062;2022-09-09T14:42:53;100363.47;;;15.87;100.00
39341;BME280;25059;52.132;21.062;2022-09-09T14:45:38;100374.47;;;15.95;100.00
39341;BME280;25059;52.132;21.062;2022-09-09T14:48:22;100370.22;;;16.06;100.00
39341;BME280;25059;52.132;21.062;2022-09-09T14:51:09;100370.59;;;16.14;100.00
39341;BME280;25059;52.132;21.062;2022-09-09T14:53:55;100366.13;;;16.29;100.00
39341;BME280;25059;52.132;21.062;2022-09-09T14:56:44;100365.75;;;16.50;100.00
39341;BME280;25059;52.132;21.062;2022-09-09T14:59:29;100366.78;;;16.47;100.00
39341;BME280;25059;52.132;21.062;2022-09-09T15:02:14;100373.50;;;16.53;100.00
39341;BME280;25059;52.132;21.062;2022-09-09T15:04:59;100372.19;;;16.45;100.00
39341;BME280;25059;52.132;21.062;2022-09-09T15:07:44;100359.38;;;16.52;100.00
39341;BME280;25059;52.132;21.062;2022-09-09T15:10:28;100363.88;;;16.23;100.00
39341;BME280;25059;52.132;21.062;2022-09-09T15:13:15;100358.75;;;16.06;100.00
39341;BME280;25059;52.132;21.062;2022-09-09T15:16:07;100361.59;;;16.03;100.00
39341;BME280;25059;52.132;21.062;2022-09-09T15:18:55;100359.03;;;16.01;100.00
39341;BME280;25059;52.132;21.062;2022-09-09T15:21:41;100361.50;;;15.90;100.00
39341;BME280;25059;52.132;21.062;2022-09-09T15:24:26;100362.44;;;15.89;100.00
39341;BME280;25059;52.132;21.062;2022-09-09T15:27:10;100367.25;;;15.82;100.00
39341;BME280;25059;52.132;21.062;2022-09-09T15:29:55;100367.63;;;15.76;100.00
39341;BME280;25059;52.132;21.062;2022-09-09T15:32:41;100373.88;;;15.75;100.00
39341;BME280;25059;52.132;21.062;2022-09-09T15:35:25;100368.66;;;15.74;100.00
39341;BME280;25059;52.132;21.062;2022-09-09T15:38:10;100377.31;;;15.92;100.00
39341;BME280;25059;52.132;21.062;2022-09-09T15:40:57;100380.91;;;15.91;100.00
39341;BME280;25059;52.132;21.062;2022-09-09T15:43:44;100368.31;;;15.94;100.00
39341;BME280;25059;52.132;21.062;2022-09-09T15:46:32;100370.50;;;16.16;100.00
39341;BME280;25059;52.132;21.062;2022-09-09T15:49:19;100362.44;;;16.32;100.00
39341;BME280;25059;52.132;21.062;2022-09-09T15:52:06;100364.81;;;16.22;100.00
39341;BME280;25059;52.132;21.062;2022-09-09T15:54:50;100356.28;;;16.17;100.00
39341;BME280;25059;52.132;21.062;2022-09-09T15:57:35;100366.03;;;16.17;100.00
39341;BME280;25059;52.132;21.062;2022-09-09T16:00:20;100365.84;;;16.05;100.00
39341;BME280;25059;52.132;21.062;2022-09-09T16:03:04;100364.72;;;15.95;100.00
39341;BME280;25059;52.132;21.062;2022-09-09T16:05:51;100369.81;;;15.84;100.00
39341;BME280;25059;52.132;21.062;2022-09-09T16:08:39;100371.03;;;15.78;100.00
39341;BME280;25059;52.132;21.062;2022-09-09T16:11:26;100361.25;;;15.65;100.00
39341;BME280;25059;52.132;21.062;2022-09-09T16:14:11;100361.88;;;15.54;100.00
39341;BME280;25059;52.132;21.062;2022-09-09T16:16:56;100371.78;;;15.50;100.00
39341;BME280;25059;52.132;21.062;2022-09-09T16:19:41;100368.56;;;15.45;100.00
39341;BME280;25059;52.132;21.062;2022-09-09T16:22:25;100368.91;;;15.39;100.00
39341;BME280;25059;52.132;21.062;2022-09-09T16:25:10;100377.31;;;15.32;100.00
39341;BME280;25059;52.132;21.062;2022-09-09T16:27:54;100366.66;;;15.17;100.00
39341;BME280;25059;52.132;21.062;2022-09-09T16:30:39;100363.69;;;15.08;100.00
39341;BME280;25059;52.132;21.062;2022-09-09T16:33:26;100377.78;;;15.08;100.00
39341;BME280;25059;52.132;21.062;2022-09-09T16:36:12;100375.81;;;15.12;100.00
39341;BME280;25059;52.132;21.062;2022-09-09T16:38:59;100373.44;;;15.07;100.00
39341;BME280;25059;52.132;21.062;2022-09-09T16:41:46;100366.25;;;15.09;100.00
39341;BME280;25059;52.132;21.062;2022-09-09T16:44:31;100359.44;;;15.05;100.00
39341;BME280;25059;52.132;21.062;2022-09-09T16:47:17;100366.28;;;14.94;100.00
39341;BME280;25059;52.132;21.062;2022-09-09T16:50:02;100363.28;;;14.84;100.00
39341;BME280;25059;52.132;21.062;2022-09-09T16:52:47;100366.19;;;14.79;100.00
39341;BME280;25059;52.132;21.062;2022-09-09T16:55:32;100375.16;;;14.77;100.00
39341;BME280;25059;52.132;21.062;2022-09-09T16:58:17;100375.75;;;14.66;100.00
39341;BME280;25059;52.132;21.062;2022-09-09T17:01:02;100378.75;;;14.60;100.00
39341;BME280;25059;52.132;21.062;2022-09-09T17:03:52;100378.47;;;14.49;100.00
39341;BME280;25059;52.132;21.062;2022-09-09T17:06:37;100378.56;;;14.47;100.00
39341;BME280;25059;52.132;21.062;2022-09-09T17:09:23;100388.38;;;14.45;100.00
39341;BME280;25059;52.132;21.062;2022-09-09T17:12:11;100392.16;;;14.40;100.00
39341;BME280;25059;52.132;21.062;2022-09-09T17:14:56;100388.41;;;14.28;100.00
39341;BME280;25059;52.132;21.062;2022-09-09T17:17:42;100393.06;;;14.23;100.00
39341;BME280;25059;52.132;21.062;2022-09-09T17:20:29;100395.03;;;14.19;100.00
39341;BME280;25059;52.132;21.062;2022-09-09T17:23:17;100398.84;;;14.14;100.00
39341;BME280;25059;52.132;21.062;2022-09-09T17:26:02;100400.47;;;14.16;100.00
39341;BME280;25059;52.132;21.062;2022-09-09T17:28:47;100400.22;;;14.21;100.00
39341;BME280;25059;52.132;21.062;2022-09-09T17:31:32;100397.75;;;14.18;100.00
39341;BME280;25059;52.132;21.062;2022-09-09T17:34:17;100398.16;;;14.10;100.00
39341;BME280;25059;52.132;21.062;2022-09-09T17:37:03;100388.16;;;14.00;100.00
39341;BME280;25059;52.132;21.062;2022-09-09T17:39:50;100402.75;;;14.07;100.00
39341;BME280;25059;52.132;21.062;2022-09-09T17:42:34;100402.91;;;14.04;100.00
39341;BME280;25059;52.132;21.062;2022-09-09T17:45:19;100407.50;;;14.00;100.00
39341;BME280;25059;52.132;21.062;2022-09-09T17:48:04;100409.13;;;14.03;100.00
39341;BME280;25059;52.132;21.062;2022-09-09T17:50:57;100414.81;;;13.95;100.00
39341;BME280;25059;52.132;21.062;2022-09-09T17:53:47;100420.50;;;13.87;100.00
39341;BME280;25059;52.132;21.062;2022-09-09T17:56:32;100414.38;;;13.87;100.00
39341;BME280;25059;52.132;21.062;2022-09-09T17:59:18;100418.19;;;13.81;100.00
39341;BME280;25059;52.132;21.062;2022-09-09T18:02:03;100413.59;;;13.85;100.00
39341;BME280;25059;52.132;21.062;2022-09-09T18:04:50;100407.44;;;13.84;100.00
39341;BME280;25059;52.132;21.062;2022-09-09T18:07:34;100422.22;;;13.88;100.00
39341;BME280;25059;52.132;21.062;2022-09-09T18:10:19;100425.94;;;13.84;100.00
39341;BME280;25059;52.132;21.062;2022-09-09T18:13:03;100429.44;;;13.85;100.00
39341;BME280;25059;52.132;21.062;2022-09-09T18:15:50;100424.06;;;13.86;100.00
39341;BME280;25059;52.132;21.062;2022-09-09T18:18:34;100432.25;;;13.82;100.00
39341;BME280;25059;52.132;21.062;2022-09-09T18:21:19;100434.19;;;13.78;100.00
39341;BME280;25059;52.132;21.062;2022-09-09T18:24:05;100438.47;;;13.81;100.00
39341;BME280;25059;52.132;21.062;2022-09-09T18:26:50;100436.81;;;13.78;100.00
39341;BME280;25059;52.132;21.062;2022-09-09T18:29:34;100443.19;;;13.74;100.00
39341;BME280;25059;52.132;21.062;2022-09-09T18:32:19;100443.19;;;13.74;100.00
39341;BME280;25059;52.132;21.062;2022-09-09T18:35:04;100439.47;;;13.78;100.00
39341;BME280;25059;52.132;21.062;2022-09-09T18:37:50;100435.44;;;13.71;100.00
39341;BME280;25059;52.132;21.062;2022-09-09T18:40:34;100437.44;;;13.66;100.00
39341;BME280;25059;52.132;21.062;2022-09-09T18:43:19;100440.41;;;13.60;100.00
39341;BME280;25059;52.132;21.062;2022-09-09T18:46:05;100438.47;;;13.64;100.00
39341;BME280;25059;52.132;21.062;2022-09-09T18:48:50;100440.25;;;13.63;100.00
39341;BME280;25059;52.132;21.062;2022-09-09T18:51:35;100441.03;;;13.65;100.00
39341;BME280;25059;52.132;21.062;2022-09-09T18:54:23;100436.75;;;13.63;100.00
39341;BME280;25059;52.132;21.062;2022-09-09T18:57:11;100435.81;;;13.64;100.00
39341;BME280;25059;52.132;21.062;2022-09-09T18:59:56;100430.69;;;13.61;100.00
39341;BME280;25059;52.132;21.062;2022-09-09T19:06:20;100445.31;;;13.68;100.00
39341;BME280;25059;52.132;21.062;2022-09-09T19:09:15;100438.38;;;13.65;100.00